Zolotoj, Russia
Current Conditions -  °F | °C
As of 10:00 PM on Tuesday 27 Jan 2015 (Local Time) from UHSS Reporting Station
Clear Clear  
Wind Chill:   Ceiling: Unl
Heat Index: 16°   Visibility: 6mi
Dew Point: 10°   Wind: 13mph
Humidity: 79%   Direction: 10°N
Pressure: 29.59"   Gusts: NA
Location:  47.32°N, 138.98°E
Report Text: UHSS 271200Z 01006MPS 9999 NSC M09/M12 Q1002 NOSIG RMKQFE750/1001 01320050
Loading
Personal Weather Stations






























Interactive Weather Map New forecast layout! Learn more

10-Day Weather Forecast

Advertisements
Track Severe Weather on mobile